createdAt,value
2018-06-29T00:00:32.670Z,94.73
2018-06-29T00:01:32.582Z,94.73
2018-06-29T00:02:32.480Z,94.45
2018-06-29T00:03:32.387Z,94.73
2018-06-29T00:04:32.295Z,94.54
2018-06-29T00:05:32.194Z,94.83
2018-06-29T00:06:32.102Z,95.21
2018-06-29T00:07:32.014Z,94.45
2018-06-29T00:08:31.928Z,94.93
2018-06-29T00:09:31.816Z,94.93
2018-06-29T00:10:31.724Z,95.31
2018-06-29T00:11:31.638Z,94.54
2018-06-29T00:12:31.534Z,95.40
2018-06-29T00:13:31.446Z,94.54
2018-06-29T00:14:31.356Z,94.64
2018-06-29T00:15:31.247Z,95.03
2018-06-29T00:16:31.199Z,94.54
2018-06-29T00:17:31.069Z,94.93
2018-06-29T00:18:30.966Z,95.03
2018-06-29T00:19:30.871Z,94.45
2018-06-29T00:20:30.781Z,94.16
2018-06-29T00:21:30.676Z,95.21
2018-06-29T00:22:30.583Z,94.93
2018-06-29T00:23:30.498Z,94.26
2018-06-29T00:24:30.406Z,93.92
2018-06-29T00:25:30.301Z,94.45
2018-06-29T00:26:30.212Z,94.21
2018-06-29T00:27:30.124Z,95.07
2018-06-29T00:28:30.034Z,94.59
2018-06-29T00:29:29.927Z,94.21
2018-06-29T00:30:29.836Z,94.78
2018-06-29T00:31:29.729Z,94.40
2018-06-29T00:32:29.640Z,94.31
2018-06-29T00:33:29.566Z,94.49
2018-06-29T00:34:29.453Z,94.49
2018-06-29T00:35:29.356Z,94.31
2018-06-29T00:36:29.264Z,94.88
2018-06-29T00:37:29.159Z,95.07
2018-06-29T00:38:29.069Z,94.69
2018-06-29T00:39:29.231Z,94.31
2018-06-29T00:40:28.881Z,95.17
2018-06-29T00:41:28.786Z,94.59
2018-06-29T00:42:28.696Z,95.07
2018-06-29T00:43:28.595Z,94.98
2018-06-29T00:44:28.506Z,94.88
2018-06-29T00:45:28.412Z,95.07
2018-06-29T00:46:28.321Z,95.07
2018-06-29T00:47:28.214Z,95.07
2018-06-29T00:48:28.123Z,95.07
2018-06-29T00:49:28.024Z,94.69
2018-06-29T00:50:27.933Z,94.98
2018-06-29T00:51:27.840Z,95.36
2018-06-29T00:52:27.734Z,95.17
2018-06-29T00:53:27.652Z,95.07
2018-06-29T00:54:27.554Z,94.69
2018-06-29T00:55:27.456Z,95.26
2018-06-29T00:56:27.369Z,95.07
2018-06-29T00:57:27.268Z,95.07
2018-06-29T00:58:27.164Z,95.07
2018-06-29T00:59:27.078Z,95.07
2018-06-29T01:00:26.987Z,94.49
2018-06-29T01:01:26.885Z,95.26
2018-06-29T01:02:26.799Z,94.98
2018-06-29T01:03:26.688Z,95.36
2018-06-29T01:04:26.610Z,95.07
2018-06-29T01:05:26.511Z,94.49
2018-06-29T01:06:26.419Z,95.07
2018-06-29T01:07:26.312Z,95.03
2018-06-29T01:08:26.222Z,95.21
2018-06-29T01:09:26.116Z,95.31
2018-06-29T01:10:26.025Z,94.35
2018-06-29T01:11:25.939Z,95.21
2018-06-29T01:12:25.835Z,95.50
2018-06-29T01:13:25.743Z,94.64
2018-06-29T01:14:25.680Z,94.64
2018-06-29T01:15:25.552Z,94.83
2018-06-29T01:16:25.461Z,94.54
2018-06-29T01:17:25.368Z,94.54
2018-06-29T01:18:25.265Z,94.26
2018-06-29T01:19:25.169Z,95.21
2018-06-29T01:20:25.080Z,95.41
2018-06-29T01:21:25.005Z,95.21
2018-06-29T01:22:24.888Z,95.12
2018-06-29T01:23:24.795Z,94.83
2018-06-29T01:24:24.695Z,95.21
2018-06-29T01:25:24.602Z,95.41
2018-06-29T01:26:24.512Z,94.93
2018-06-29T01:27:24.413Z,95.31
2018-06-29T01:28:24.321Z,95.21
2018-06-29T01:29:24.213Z,94.64
2018-06-29T01:30:24.122Z,95.03
2018-06-29T01:31:24.036Z,95.03
2018-06-29T01:32:23.932Z,94.16
2018-06-29T01:33:23.843Z,94.45
2018-06-29T01:34:23.752Z,94.35
2018-06-29T01:35:23.644Z,94.45
2018-06-29T01:36:23.554Z,94.26
2018-06-29T01:37:23.459Z,94.40
2018-06-29T01:38:23.356Z,94.98
2018-06-29T01:39:23.271Z,94.83
2018-06-29T01:40:23.180Z,95.31
2018-06-29T01:41:23.141Z,94.31
2018-06-29T01:42:22.988Z,94.49
2018-06-29T01:43:22.880Z,93.92
2018-06-29T01:44:23.089Z,94.79
2018-06-29T01:45:22.701Z,94.49
2018-06-29T01:46:22.597Z,95.26
2018-06-29T01:47:22.502Z,94.93
2018-06-29T01:48:22.412Z,93.63
2018-06-29T01:49:22.310Z,94.35
2018-06-29T01:50:22.223Z,94.74
2018-06-29T01:51:22.133Z,94.31
2018-06-29T01:52:22.030Z,94.64
2018-06-29T01:53:21.934Z,94.31
2018-06-29T01:54:22.082Z,94.12
2018-06-29T01:55:21.744Z,93.54
2018-06-29T01:56:21.656Z,94.40
2018-06-29T01:57:21.548Z,94.31
2018-06-29T01:58:21.458Z,94.12
2018-06-29T01:59:21.365Z,93.92
2018-06-29T02:00:21.259Z,94.59
2018-06-29T02:01:21.175Z,93.82
2018-06-29T02:02:21.096Z,93.73
2018-06-29T02:03:20.976Z,93.44
2018-06-29T02:04:21.193Z,94.21
2018-06-29T02:05:20.792Z,93.92
2018-06-29T02:06:20.689Z,94.69
2018-06-29T02:07:20.602Z,93.54
2018-06-29T02:08:20.500Z,93.92
2018-06-29T02:09:20.404Z,94.02
2018-06-29T02:10:20.316Z,93.54
2018-06-29T02:11:20.215Z,93.73
2018-06-29T02:12:20.123Z,93.54
2018-06-29T02:13:20.023Z,93.01
2018-06-29T02:14:19.931Z,93.25
2018-06-29T02:15:19.836Z,92.86
2018-06-29T02:16:19.733Z,92.96
2018-06-29T02:17:19.644Z,92.72
2018-06-29T02:18:19.553Z,92.24
2018-06-29T02:19:19.449Z,92.54
2018-06-29T02:20:19.355Z,92.63
2018-06-29T02:21:19.255Z,92.44
2018-06-29T02:22:19.163Z,92.24
2018-06-29T02:23:19.077Z,91.67
2018-06-29T02:24:18.974Z,92.44
2018-06-29T02:25:18.891Z,92.34
2018-06-29T02:26:18.776Z,92.44
2018-06-29T02:27:18.689Z,92.24
2018-06-29T02:28:18.599Z,92.34
2018-06-29T02:29:18.492Z,91.28
2018-06-29T02:30:18.402Z,91.86
2018-06-29T02:31:18.326Z,91.67
2018-06-29T02:32:18.203Z,91.00
2018-06-29T02:33:18.135Z,91.48
2018-06-29T02:34:18.020Z,91.77
2018-06-29T02:35:17.920Z,91.96
2018-06-29T02:36:17.830Z,91.57
2018-06-29T02:37:17.725Z,91.09
2018-06-29T02:38:17.633Z,91.96
2018-06-29T02:39:17.834Z,91.77
2018-06-29T02:40:17.444Z,91.67
2018-06-29T02:41:17.350Z,91.86
2018-06-29T02:42:17.247Z,91.67
2018-06-29T02:43:17.160Z,91.96
2018-06-29T02:44:17.059Z,91.77
2018-06-29T02:45:16.968Z,91.38
2018-06-29T02:46:16.875Z,91.67
2018-06-29T02:47:16.766Z,91.00
2018-06-29T02:48:16.674Z,91.57
2018-06-29T02:49:16.580Z,92.24
2018-06-29T02:50:16.488Z,91.48
2018-06-29T02:51:16.392Z,92.72
2018-06-29T02:52:16.289Z,93.40
2018-06-29T02:53:16.198Z,91.86
2018-06-29T02:54:16.106Z,92.34
2018-06-29T02:55:16.021Z,91.96
2018-06-29T02:56:15.919Z,93.11
2018-06-29T02:57:15.808Z,93.21
2018-06-29T02:58:15.717Z,93.11
2018-06-29T02:59:15.869Z,92.15
2018-06-29T03:00:15.530Z,93.88
2018-06-29T03:01:15.438Z,93.21
2018-06-29T03:02:15.334Z,93.49
2018-06-29T03:03:15.242Z,93.59
2018-06-29T03:04:15.149Z,93.68
2018-06-29T03:05:15.048Z,94.35
2018-06-29T03:06:14.957Z,93.68
2018-06-29T03:07:14.850Z,94.07
2018-06-29T03:08:14.759Z,93.40
2018-06-29T03:09:14.659Z,93.59
2018-06-29T03:10:14.568Z,94.17
2018-06-29T03:11:14.482Z,94.35
2018-06-29T03:12:14.381Z,93.78
2018-06-29T03:13:14.283Z,94.45
2018-06-29T03:14:14.191Z,94.35
2018-06-29T03:15:14.092Z,94.45
2018-06-29T03:16:14.002Z,94.54
2018-06-29T03:17:13.897Z,94.54
2018-06-29T03:18:13.805Z,94.93
2018-06-29T03:19:13.698Z,94.93
2018-06-29T03:20:13.607Z,94.93
2018-06-29T03:21:13.521Z,95.21
2018-06-29T03:22:13.432Z,94.54
2018-06-29T03:23:13.324Z,94.74
2018-06-29T03:24:13.221Z,94.74
2018-06-29T03:25:13.173Z,95.79
2018-06-29T03:26:13.038Z,94.93
2018-06-29T03:27:12.938Z,94.84
2018-06-29T03:28:12.846Z,95.51
2018-06-29T03:29:12.741Z,95.07
2018-06-29T03:30:12.650Z,95.36
2018-06-29T03:31:12.561Z,94.98
2018-06-29T03:32:12.459Z,94.88
2018-06-29T03:33:12.371Z,94.88
2018-06-29T03:34:12.279Z,95.21
2018-06-29T03:35:12.171Z,95.26
2018-06-29T03:36:12.084Z,95.65
2018-06-29T03:37:11.980Z,95.03
2018-06-29T03:38:11.888Z,95.46
2018-06-29T03:39:11.793Z,95.94
2018-06-29T03:40:11.759Z,95.17
2018-06-29T03:41:11.601Z,95.07
2018-06-29T03:42:11.503Z,95.46
2018-06-29T03:43:11.415Z,95.17
2018-06-29T03:44:11.333Z,95.17
2018-06-29T03:45:11.217Z,95.55
2018-06-29T03:46:11.127Z,96.03
2018-06-29T03:47:11.019Z,95.46
2018-06-29T03:48:10.928Z,95.17
2018-06-29T03:49:10.839Z,95.55
2018-06-29T03:50:10.733Z,95.46
2018-06-29T03:51:10.645Z,96.13
2018-06-29T03:52:10.563Z,96.13
2018-06-29T03:53:10.449Z,95.70
2018-06-29T03:54:10.358Z,96.47
2018-06-29T03:55:10.260Z,95.79
2018-06-29T03:56:10.169Z,95.60
2018-06-29T03:57:10.088Z,95.70
2018-06-29T03:58:09.972Z,96.18
2018-06-29T03:59:09.877Z,95.50
2018-06-29T04:00:09.786Z,95.98
2018-06-29T04:01:09.687Z,95.60
2018-06-29T04:02:09.597Z,95.89
2018-06-29T04:03:09.502Z,95.84
2018-06-29T04:04:09.398Z,95.60
2018-06-29T04:05:09.310Z,94.68
2018-06-29T04:06:09.218Z,93.19
2018-06-29T04:07:09.119Z,91.85
2018-06-29T04:08:09.029Z,90.59
2018-06-29T04:09:08.931Z,90.79
2018-06-29T04:10:08.848Z,90.69
2018-06-29T04:11:08.742Z,90.50
2018-06-29T04:12:08.651Z,91.03
2018-06-29T04:13:08.550Z,91.22
2018-06-29T04:14:08.460Z,92.47
2018-06-29T04:15:08.379Z,93.15
2018-06-29T04:16:08.276Z,92.29
2018-06-29T04:17:08.175Z,92.38
2018-06-29T04:18:08.085Z,92.76
2018-06-29T04:19:07.989Z,93.34
2018-06-29T04:20:07.886Z,93.53
2018-06-29T04:21:07.792Z,93.53
2018-06-29T04:22:07.702Z,93.44
2018-06-29T04:23:07.614Z,93.24
2018-06-29T04:24:07.511Z,92.86
2018-06-29T04:25:07.419Z,91.85
2018-06-29T04:26:07.327Z,91.46
2018-06-29T04:27:07.241Z,90.79
2018-06-29T04:28:07.138Z,90.59
2018-06-29T04:29:07.044Z,90.89
2018-06-29T04:30:06.955Z,91.17
2018-06-29T04:31:06.872Z,90.31
2018-06-29T04:32:06.755Z,90.21
2018-06-29T04:33:06.670Z,90.50
2018-06-29T04:34:06.578Z,89.58
2018-06-29T04:35:06.485Z,88.43
2018-06-29T04:36:06.381Z,88.33
2018-06-29T04:37:06.291Z,87.76
2018-06-29T04:38:06.201Z,88.24
2018-06-29T04:39:06.113Z,87.56
2018-06-29T04:40:06.024Z,87.81
2018-06-29T04:41:05.913Z,86.99
2018-06-29T04:42:05.822Z,85.20
2018-06-29T04:43:05.735Z,81.87
2018-06-29T04:44:05.648Z,78.73
2018-06-29T04:45:05.557Z,77.67
2018-06-29T04:46:05.453Z,74.85
2018-06-29T04:47:05.360Z,72.00
2018-06-29T04:48:05.267Z,70.36
2018-06-29T04:49:05.178Z,69.49
2018-06-29T04:50:05.089Z,68.94
2018-06-29T04:51:04.981Z,66.72
2018-06-29T04:52:04.893Z,67.01
2018-06-29T04:53:04.801Z,66.27
2018-06-29T04:54:04.714Z,65.98
2018-06-29T04:55:04.623Z,65.20
2018-06-29T04:56:04.532Z,65.40
2018-06-29T04:57:04.437Z,64.56
2018-06-29T04:58:04.344Z,63.14
2018-06-29T04:59:04.261Z,62.88
2018-06-29T05:00:04.167Z,61.50
2018-06-29T05:01:04.094Z,62.24
2018-06-29T05:02:04.000Z,62.66
2018-06-29T05:03:03.881Z,62.73
2018-06-29T05:04:03.801Z,63.14
2018-06-29T05:05:03.716Z,63.31
2018-06-29T05:06:03.623Z,62.95
2018-06-29T05:07:03.517Z,61.33
2018-06-29T05:08:03.438Z,60.17
2018-06-29T05:09:03.345Z,60.66
2018-06-29T05:10:03.255Z,60.59
2018-06-29T05:11:03.168Z,59.14
2018-06-29T05:12:03.120Z,58.98
2018-06-29T05:13:02.984Z,57.75
2018-06-29T05:14:02.893Z,57.55
2018-06-29T05:15:02.807Z,57.29
2018-06-29T05:16:02.716Z,57.59
2018-06-29T05:17:02.624Z,57.71
2018-06-29T05:18:02.531Z,57.53
2018-06-29T05:19:02.441Z,57.79
2018-06-29T05:20:02.346Z,58.56
2018-06-29T05:21:02.272Z,58.59
2018-06-29T05:22:02.185Z,57.20
2018-06-29T05:23:02.086Z,57.43
2018-06-29T05:24:01.997Z,57.55
2018-06-29T05:25:01.908Z,57.26
2018-06-29T05:26:01.817Z,56.13
2018-06-29T05:27:01.733Z,55.35
2018-06-29T05:28:01.640Z,55.83
2018-06-29T05:29:01.555Z,56.10
2018-06-29T05:30:01.465Z,56.13
2018-06-29T05:31:01.378Z,54.90
2018-06-29T05:32:01.286Z,54.41
2018-06-29T05:33:01.197Z,55.42
2018-06-29T05:34:01.119Z,55.64
2018-06-29T05:35:01.023Z,54.50
2018-06-29T05:36:00.937Z,54.21
2018-06-29T05:37:00.850Z,54.50
2018-06-29T05:38:00.767Z,54.24
2018-06-29T05:39:00.674Z,54.05
2018-06-29T05:40:00.595Z,53.56
2018-06-29T05:41:00.490Z,52.98
2018-06-29T05:42:00.401Z,53.47
2018-06-29T05:43:00.324Z,53.08
2018-06-29T05:44:00.235Z,53.53
2018-06-29T05:45:00.153Z,53.95
2018-06-29T05:46:00.062Z,53.20
2018-06-29T05:47:00.014Z,53.10
2018-06-29T05:47:59.885Z,52.33
2018-06-29T05:48:59.793Z,52.23
2018-06-29T05:49:59.714Z,52.45
2018-06-29T05:50:59.618Z,53.15
2018-06-29T05:51:59.534Z,52.91
2018-06-29T05:52:59.483Z,51.75
2018-06-29T05:53:59.359Z,52.72
2018-06-29T05:54:59.273Z,52.33
2018-06-29T05:55:59.195Z,51.77
2018-06-29T05:56:59.108Z,51.21
2018-06-29T05:57:59.015Z,49.78
2018-06-29T05:58:58.936Z,49.99
2018-06-29T05:59:58.841Z,48.41
2018-06-29T06:00:58.754Z,49.49
2018-06-29T06:01:58.735Z,49.44
2018-06-29T06:02:58.579Z,48.54
2018-06-29T06:03:58.489Z,48.34
2018-06-29T06:04:58.413Z,48.85
2018-06-29T06:05:58.324Z,49.49
2018-06-29T06:06:58.247Z,50.07
2018-06-29T06:07:58.157Z,49.49
2018-06-29T06:08:58.062Z,50.24
2018-06-29T06:09:57.985Z,51.60
2018-06-29T06:10:57.896Z,50.38
2018-06-29T06:11:57.820Z,49.71
2018-06-29T06:12:57.725Z,48.56
2018-06-29T06:13:57.654Z,47.98
2018-06-29T06:14:57.552Z,48.46
2018-06-29T06:15:57.495Z,47.96
2018-06-29T06:16:57.389Z,48.17
2018-06-29T06:17:57.299Z,47.13
2018-06-29T06:18:57.217Z,47.20
2018-06-29T06:19:57.138Z,48.00
2018-06-29T06:20:57.044Z,47.22
2018-06-29T06:21:56.968Z,46.56
2018-06-29T06:22:56.882Z,46.76
2018-06-29T06:23:56.789Z,46.64
2018-06-29T06:24:56.710Z,46.78
2018-06-29T06:25:56.623Z,45.51
2018-06-29T06:26:56.543Z,45.05
2018-06-29T06:27:56.450Z,44.51
2018-06-29T06:28:56.387Z,43.07
2018-06-29T06:29:56.285Z,44.19
2018-06-29T06:30:56.203Z,45.54
2018-06-29T06:31:56.110Z,44.58
2018-06-29T06:32:56.040Z,43.53
2018-06-29T06:33:55.944Z,42.21
2018-06-29T06:34:55.862Z,41.70
2018-06-29T06:35:55.771Z,42.21
2018-06-29T06:36:55.695Z,42.30
2018-06-29T06:37:55.616Z,41.05
2018-06-29T06:38:55.530Z,40.80
2018-06-29T06:39:55.452Z,40.68
2018-06-29T06:40:55.357Z,41.15
2018-06-29T06:41:55.282Z,41.05
2018-06-29T06:42:55.203Z,41.25
2018-06-29T06:43:55.115Z,41.19
2018-06-29T06:44:55.033Z,42.60
2018-06-29T06:45:54.943Z,42.52
2018-06-29T06:46:54.894Z,42.42
2018-06-29T06:47:54.781Z,42.42
2018-06-29T06:48:54.697Z,42.03
2018-06-29T06:49:54.619Z,41.86
2018-06-29T06:50:54.536Z,40.97
2018-06-29T06:51:54.445Z,41.44
2018-06-29T06:52:54.364Z,41.35
2018-06-29T06:53:54.286Z,41.54
2018-06-29T06:54:54.199Z,42.03
2018-06-29T06:55:54.122Z,41.56
2018-06-29T06:56:54.041Z,41.93
2018-06-29T06:57:53.963Z,42.03
2018-06-29T06:58:53.876Z,41.72
2018-06-29T06:59:53.798Z,41.96
2018-06-29T07:00:53.717Z,40.39
2018-06-29T07:01:53.627Z,41.70
2018-06-29T07:02:53.545Z,42.44
2018-06-29T07:03:53.466Z,44.19
2018-06-29T07:04:53.394Z,43.07
2018-06-29T07:05:53.302Z,42.91
2018-06-29T07:06:53.220Z,41.72
2018-06-29T07:07:53.142Z,41.75
2018-06-29T07:08:53.061Z,43.02
2018-06-29T07:09:52.971Z,43.68
2018-06-29T07:10:52.897Z,43.51
2018-06-29T07:11:52.819Z,42.63
2018-06-29T07:12:52.736Z,42.58
2018-06-29T07:13:52.663Z,41.72
2018-06-29T07:14:52.571Z,42.38
2018-06-29T07:15:52.492Z,40.58
2018-06-29T07:16:52.416Z,39.82
2018-06-29T07:17:52.325Z,39.06
2018-06-29T07:18:52.244Z,39.33
2018-06-29T07:19:52.165Z,39.92
2018-06-29T07:20:52.090Z,40.50
2018-06-29T07:21:51.997Z,40.68
2018-06-29T07:22:51.915Z,41.19
2018-06-29T07:23:51.837Z,39.74
2018-06-29T07:24:51.760Z,39.17
2018-06-29T07:25:51.671Z,39.27
2018-06-29T07:26:51.596Z,38.68
2018-06-29T07:27:51.518Z,39.17
2018-06-29T07:28:51.436Z,39.88
2018-06-29T07:29:51.346Z,38.70
2018-06-29T07:30:51.271Z,38.67
2018-06-29T07:31:51.191Z,40.00
2018-06-29T07:32:51.111Z,40.00
2018-06-29T07:33:51.032Z,40.31
2018-06-29T07:34:50.952Z,39.72
2018-06-29T07:35:50.860Z,39.92
2018-06-29T07:36:50.789Z,39.33
2018-06-29T07:37:50.761Z,39.94
2018-06-29T07:38:50.626Z,40.01
2018-06-29T07:39:50.549Z,38.59
2018-06-29T07:40:50.468Z,37.81
2018-06-29T07:41:50.378Z,37.73
2018-06-29T07:42:50.304Z,37.90
2018-06-29T07:43:50.237Z,38.75
2018-06-29T07:44:50.141Z,38.26
2018-06-29T07:45:50.064Z,39.53
2018-06-29T07:46:49.992Z,38.78
2018-06-29T07:47:49.900Z,38.08
2018-06-29T07:48:49.826Z,37.92
2018-06-29T07:49:49.744Z,38.45
2018-06-29T07:50:49.666Z,39.39
2018-06-29T07:51:49.585Z,40.25
2018-06-29T07:52:49.555Z,40.47
2018-06-29T07:53:49.431Z,39.04
2018-06-29T07:54:49.346Z,38.90
2018-06-29T07:55:49.256Z,38.67
2018-06-29T07:56:49.180Z,38.53
2018-06-29T07:57:49.101Z,37.65
2018-06-29T07:58:49.036Z,37.38
2018-06-29T07:59:48.948Z,36.27
2018-06-29T08:00:48.870Z,36.29
2018-06-29T08:01:48.794Z,35.34
2018-06-29T08:02:48.855Z,35.14
2018-06-29T08:03:48.670Z,34.66
2018-06-29T08:04:48.550Z,35.34
2018-06-29T08:05:48.460Z,34.18
2018-06-29T08:06:48.387Z,34.39
2018-06-29T08:07:48.308Z,35.44
2018-06-29T08:08:48.234Z,35.23
2018-06-29T08:09:48.149Z,35.64
2018-06-29T08:10:48.082Z,36.07
2018-06-29T08:11:47.997Z,34.69
2018-06-29T08:12:47.917Z,34.20
2018-06-29T08:13:47.837Z,34.85
2018-06-29T08:14:47.755Z,36.16
2018-06-29T08:15:47.682Z,34.38
2018-06-29T08:16:47.649Z,33.91
2018-06-29T08:17:47.527Z,33.82
2018-06-29T08:18:47.446Z,32.36
2018-06-29T08:19:47.351Z,32.26
2018-06-29T08:20:47.275Z,32.84
2018-06-29T08:21:47.197Z,33.22
2018-06-29T08:22:47.122Z,33.69
2018-06-29T08:23:47.044Z,34.74
2018-06-29T08:24:46.962Z,35.89
2018-06-29T08:25:46.881Z,35.10
2018-06-29T08:26:46.794Z,35.57
2018-06-29T08:27:46.719Z,36.08
2018-06-29T08:28:46.640Z,36.86
2018-06-29T08:29:46.561Z,36.45
2018-06-29T08:30:46.466Z,36.63
2018-06-29T08:31:46.387Z,36.41
2018-06-29T08:32:46.315Z,37.08
2018-06-29T08:33:46.223Z,37.98
2018-06-29T08:34:46.143Z,37.73
2018-06-29T08:35:46.050Z,37.49
2018-06-29T08:36:45.969Z,37.90
2018-06-29T08:37:45.892Z,36.65
2018-06-29T08:38:45.874Z,36.43
2018-06-29T08:39:45.726Z,37.21
2018-06-29T08:40:45.633Z,35.88
2018-06-29T08:41:45.559Z,34.62
2018-06-29T08:42:45.469Z,34.34
2018-06-29T08:43:45.390Z,34.92
2018-06-29T08:44:45.297Z,34.98
2018-06-29T08:45:45.231Z,35.60
2018-06-29T08:46:45.151Z,33.54
2018-06-29T08:47:45.046Z,35.03
2018-06-29T08:48:44.972Z,33.59
2018-06-29T08:49:44.904Z,32.20
2018-06-29T08:50:44.798Z,32.50
2018-06-29T08:51:44.720Z,32.04
2018-06-29T08:52:44.643Z,32.82
2018-06-29T08:53:44.568Z,32.72
2018-06-29T08:54:44.479Z,33.18
2018-06-29T08:55:44.402Z,32.98
2018-06-29T08:56:44.316Z,33.17
2018-06-29T08:57:44.237Z,32.50
2018-06-29T08:58:44.209Z,30.45
2018-06-29T08:59:44.073Z,32.51
2018-06-29T09:00:43.998Z,32.30
2018-06-29T09:01:43.931Z,32.86
2018-06-29T09:02:43.835Z,34.47
2018-06-29T09:03:43.758Z,34.54
2018-06-29T09:04:43.680Z,36.59
2018-06-29T09:05:43.602Z,36.20
2018-06-29T09:06:43.508Z,35.94
2018-06-29T09:07:43.431Z,35.00
2018-06-29T09:08:43.354Z,34.03
2018-06-29T09:09:43.275Z,33.62
2018-06-29T09:10:43.202Z,34.64
2018-06-29T09:11:43.123Z,32.95
2018-06-29T09:12:43.039Z,34.90
2018-06-29T09:13:42.960Z,35.75
2018-06-29T09:14:42.873Z,35.65
2018-06-29T09:15:42.796Z,34.10
2018-06-29T09:16:42.718Z,34.11
2018-06-29T09:17:42.640Z,34.51
2018-06-29T09:18:42.807Z,34.42
2018-06-29T09:19:42.479Z,33.79
2018-06-29T09:20:42.404Z,32.57
2018-06-29T09:21:42.327Z,33.75
2018-06-29T09:22:42.232Z,32.76
2018-06-29T09:23:42.153Z,32.46
2018-06-29T09:24:42.076Z,33.84
2018-06-29T09:25:41.995Z,34.66
2018-06-29T09:26:41.921Z,33.22
2018-06-29T09:27:41.845Z,32.28
2018-06-29T09:28:41.763Z,34.00
2018-06-29T09:29:41.686Z,33.15
2018-06-29T09:30:41.612Z,32.84
2018-06-29T09:31:41.531Z,34.45
2018-06-29T09:32:41.451Z,35.53
2018-06-29T09:33:41.374Z,34.98
2018-06-29T09:34:41.292Z,34.13
2018-06-29T09:35:41.212Z,33.07
2018-06-29T09:36:41.141Z,33.00
2018-06-29T09:37:41.060Z,31.15
2018-06-29T09:38:40.978Z,31.35
2018-06-29T09:39:40.900Z,31.16
2018-06-29T09:40:40.823Z,30.66
2018-06-29T09:41:40.756Z,31.41
2018-06-29T09:42:40.693Z,32.40
2018-06-29T09:43:40.603Z,32.59
2018-06-29T09:44:40.523Z,31.82
2018-06-29T09:45:40.452Z,31.35
2018-06-29T09:46:40.367Z,32.05
2018-06-29T09:47:40.289Z,31.85
2018-06-29T09:48:40.215Z,30.35
2018-06-29T09:49:40.133Z,30.63
2018-06-29T09:50:40.052Z,31.09
2018-06-29T09:51:39.972Z,32.61
2018-06-29T09:52:39.912Z,32.19
2018-06-29T09:53:39.835Z,34.62
2018-06-29T09:54:39.752Z,34.52
2018-06-29T09:55:39.675Z,34.14
2018-06-29T09:56:39.592Z,33.87
2018-06-29T09:57:39.515Z,33.80
2018-06-29T09:58:39.444Z,33.90
2018-06-29T09:59:39.363Z,33.70
2018-06-29T10:00:39.314Z,33.61
2018-06-29T10:01:39.205Z,33.22
2018-06-29T10:02:39.465Z,33.38
2018-06-29T10:03:39.051Z,33.02
2018-06-29T10:04:38.970Z,33.22
2018-06-29T10:05:38.892Z,33.12
2018-06-29T10:06:38.815Z,32.74
2018-06-29T10:07:38.718Z,32.46
2018-06-29T10:08:38.646Z,32.57
2018-06-29T10:09:38.587Z,32.48
2018-06-29T10:10:38.485Z,32.28
2018-06-29T10:11:38.407Z,32.27
2018-06-29T10:12:38.327Z,32.54
2018-06-29T10:13:38.252Z,33.04
2018-06-29T10:14:38.174Z,33.05
2018-06-29T10:15:38.110Z,32.46
2018-06-29T10:16:38.021Z,32.79
2018-06-29T10:17:37.940Z,29.99
2018-06-29T10:18:38.112Z,29.89
2018-06-29T10:19:37.882Z,30.08
2018-06-29T10:20:37.705Z,29.48
2018-06-29T10:21:37.628Z,29.71
2018-06-29T10:22:37.556Z,28.55
2018-06-29T10:23:37.479Z,28.54
2018-06-29T10:24:37.404Z,28.92
2018-06-29T10:25:37.327Z,29.31
2018-06-29T10:26:37.243Z,29.66
2018-06-29T10:27:37.166Z,31.97
2018-06-29T10:28:37.100Z,33.82
2018-06-29T10:29:37.022Z,33.33
2018-06-29T10:30:36.948Z,32.84
2018-06-29T10:31:36.871Z,32.32
2018-06-29T10:32:36.786Z,33.58
2018-06-29T10:33:36.707Z,33.65
2018-06-29T10:34:36.632Z,33.46
2018-06-29T10:35:36.557Z,33.67
2018-06-29T10:36:36.492Z,34.54
2018-06-29T10:37:36.401Z,34.41
2018-06-29T10:38:36.319Z,34.70
2018-06-29T10:39:36.239Z,34.50
2018-06-29T10:40:36.165Z,35.25
2018-06-29T10:41:36.089Z,35.14
2018-06-29T10:42:36.004Z,36.10
2018-06-29T10:43:35.925Z,36.10
2018-06-29T10:44:35.910Z,35.53
2018-06-29T10:45:35.767Z,35.55
2018-06-29T10:46:35.693Z,35.19
2018-06-29T10:47:35.603Z,33.74
2018-06-29T10:48:35.523Z,32.51
2018-06-29T10:49:35.445Z,32.15
2018-06-29T10:50:35.371Z,30.82
2018-06-29T10:51:35.296Z,30.36
2018-06-29T10:52:35.212Z,29.99
2018-06-29T10:53:35.133Z,29.31
2018-06-29T10:54:35.038Z,28.33
2018-06-29T10:55:34.960Z,28.03
2018-06-29T10:56:34.887Z,27.37
2018-06-29T10:57:34.806Z,26.23
2018-06-29T10:58:34.778Z,25.84
2018-06-29T10:59:34.646Z,26.13
2018-06-29T11:00:34.571Z,26.93
2018-06-29T11:01:34.491Z,27.15
2018-06-29T11:02:34.419Z,25.96
2018-06-29T11:03:34.339Z,25.37
2018-06-29T11:04:34.256Z,25.07
2018-06-29T11:05:34.219Z,25.72
2018-06-29T11:06:34.115Z,26.30
2018-06-29T11:07:34.037Z,26.21
2018-06-29T11:08:33.961Z,26.43
2018-06-29T11:09:33.882Z,26.03
2018-06-29T11:10:33.800Z,26.31
2018-06-29T11:11:33.722Z,26.53
2018-06-29T11:12:33.645Z,26.03
2018-06-29T11:13:33.568Z,25.24
2018-06-29T11:14:33.496Z,26.41
2018-06-29T11:15:33.417Z,27.14
2018-06-29T11:16:33.341Z,28.81
2018-06-29T11:17:33.263Z,29.48
2018-06-29T11:18:33.190Z,30.63
2018-06-29T11:19:33.112Z,29.37
2018-06-29T11:20:33.040Z,28.81
2018-06-29T11:21:32.962Z,28.97
2018-06-29T11:22:32.889Z,29.17
2018-06-29T11:23:32.809Z,29.83
2018-06-29T11:24:32.733Z,30.62
2018-06-29T11:25:32.656Z,31.79
2018-06-29T11:26:32.572Z,31.20
2018-06-29T11:27:32.494Z,31.01
2018-06-29T11:28:32.431Z,31.58
2018-06-29T11:29:32.353Z,32.54
2018-06-29T11:30:32.271Z,32.70
2018-06-29T11:31:32.192Z,33.89
2018-06-29T11:32:32.118Z,34.06
2018-06-29T11:33:32.033Z,33.95
2018-06-29T11:34:31.959Z,34.83
2018-06-29T11:35:31.881Z,35.03
2018-06-29T11:36:31.800Z,35.21
2018-06-29T11:37:31.768Z,35.11
2018-06-29T11:38:31.887Z,35.11
2018-06-29T11:39:31.558Z,35.28
2018-06-29T11:40:31.478Z,35.77
2018-06-29T11:41:31.400Z,35.89
2018-06-29T11:42:31.329Z,36.08
2018-06-29T11:43:31.228Z,35.52
2018-06-29T11:44:31.151Z,35.11
2018-06-29T11:45:31.079Z,35.87
2018-06-29T11:46:30.991Z,36.05
2018-06-29T11:47:30.915Z,36.52
2018-06-29T11:48:30.825Z,37.11
2018-06-29T11:49:30.745Z,37.50
2018-06-29T11:50:30.671Z,36.43
2018-06-29T11:51:30.623Z,36.62
2018-06-29T11:52:30.499Z,35.94
2018-06-29T11:53:30.419Z,33.80
2018-06-29T11:54:30.343Z,34.52
2018-06-29T11:55:30.264Z,33.89
2018-06-29T11:56:30.176Z,32.64
2018-06-29T11:57:30.101Z,32.25
2018-06-29T11:58:30.266Z,31.86
2018-06-29T11:59:29.925Z,32.35
2018-06-29T12:00:29.907Z,32.07
2018-06-29T12:01:29.772Z,31.77
2018-06-29T12:02:29.703Z,31.32
2018-06-29T12:03:29.611Z,30.73
2018-06-29T12:04:29.518Z,30.05
2018-06-29T12:05:29.441Z,29.96
2018-06-29T12:06:29.366Z,31.32
2018-06-29T12:07:29.292Z,31.24
2018-06-29T12:08:29.208Z,32.76
2018-06-29T12:09:29.130Z,33.31
2018-06-29T12:10:29.094Z,33.41
2018-06-29T12:11:28.976Z,34.96
2018-06-29T12:12:28.886Z,34.48
2018-06-29T12:13:28.805Z,34.29
2018-06-29T12:14:28.724Z,34.38
2018-06-29T12:15:28.658Z,33.87
2018-06-29T12:16:28.566Z,33.48
2018-06-29T12:17:28.497Z,34.06
2018-06-29T12:18:28.413Z,33.07
2018-06-29T12:19:28.336Z,32.48
2018-06-29T12:20:28.259Z,32.68
2018-06-29T12:21:28.180Z,33.36
2018-06-29T12:22:28.110Z,34.83
2018-06-29T12:23:28.121Z,34.34
2018-06-29T12:24:27.956Z,34.14
2018-06-29T12:25:27.868Z,33.75
2018-06-29T12:26:27.771Z,33.85
2018-06-29T12:27:27.696Z,34.52
2018-06-29T12:28:27.617Z,34.79
2018-06-29T12:29:27.601Z,36.06
2018-06-29T12:30:27.465Z,36.96
2018-06-29T12:31:27.372Z,35.61
2018-06-29T12:32:27.290Z,35.12
2018-06-29T12:33:27.217Z,34.84
2018-06-29T12:34:27.126Z,35.31
2018-06-29T12:35:27.049Z,35.12
2018-06-29T12:36:26.967Z,35.41
2018-06-29T12:37:26.889Z,35.80
2018-06-29T12:38:26.793Z,36.98
2018-06-29T12:39:26.717Z,35.41
2018-06-29T12:40:26.631Z,34.84
2018-06-29T12:41:26.554Z,35.22
2018-06-29T12:42:26.457Z,35.80
2018-06-29T12:43:26.379Z,36.49
2018-06-29T12:44:26.287Z,36.58
2018-06-29T12:45:26.211Z,36.10
2018-06-29T12:46:26.121Z,37.46
2018-06-29T12:47:26.042Z,36.00
2018-06-29T12:48:25.952Z,35.41
2018-06-29T12:49:25.869Z,35.41
2018-06-29T12:50:25.783Z,35.80
2018-06-29T12:51:25.721Z,38.73